createdAt,value
2018-11-23T00:00:26.460Z,-0.3
2018-11-23T00:01:38.557Z,-0.3
2018-11-23T00:02:50.742Z,-0.3
2018-11-23T00:04:02.950Z,-0.2
2018-11-23T00:05:15.237Z,-0.2
2018-11-23T00:06:27.505Z,-0.2
2018-11-23T00:07:39.597Z,-0.1
2018-11-23T00:08:51.802Z,-0.1
2018-11-23T00:10:04.096Z,-0.1
2018-11-23T00:11:16.329Z,-0.1
2018-11-23T00:12:28.455Z,-0.1
2018-11-23T00:13:40.708Z,-0.1
2018-11-23T00:14:52.988Z,-0.1
2018-11-23T00:16:05.201Z,-0.2
2018-11-23T00:17:17.399Z,-0.3
2018-11-23T00:18:29.614Z,-0.3
2018-11-23T00:19:41.968Z,-0.4
2018-11-23T00:20:54.058Z,-0.4
2018-11-23T00:22:06.277Z,-0.3
2018-11-23T00:23:21.003Z,-0.2
2018-11-23T00:24:30.647Z,-0.1
2018-11-23T00:25:42.867Z,-0.2
2018-11-23T00:26:55.152Z,-0.2
2018-11-23T00:28:07.395Z,-0.2
2018-11-23T00:29:19.575Z,-0.2
2018-11-23T00:30:31.918Z,-0.2
2018-11-23T00:32:56.264Z,-0.3
2018-11-23T00:34:08.420Z,-0.3
2018-11-23T00:35:20.647Z,-0.3
2018-11-23T00:36:32.866Z,-0.3
2018-11-23T00:37:45.074Z,-0.3
2018-11-23T00:38:58.548Z,-0.3
2018-11-23T00:40:10.106Z,-0.3
2018-11-23T00:41:21.630Z,-0.3
2018-11-23T00:42:33.843Z,-0.2
2018-11-23T00:43:46.142Z,-0.3
2018-11-23T00:44:58.423Z,-0.2
2018-11-23T00:46:10.555Z,-0.2
2018-11-23T00:47:22.796Z,-0.2
2018-11-23T00:48:34.957Z,-0.1
2018-11-23T00:49:47.238Z,-0.1
2018-11-23T00:50:59.370Z,-0.1
2018-11-23T00:52:11.672Z,0
2018-11-23T00:53:23.891Z,0
2018-11-23T00:54:36.104Z,0
2018-11-23T00:55:48.334Z,0
2018-11-23T00:57:00.542Z,0.1
2018-11-23T00:58:12.722Z,0.1
2018-11-23T00:59:24.993Z,0.1
2018-11-23T01:00:37.134Z,0.1
2018-11-23T01:01:49.418Z,0.1
2018-11-23T01:03:01.656Z,0.2
2018-11-23T01:04:13.870Z,0.2
2018-11-23T01:05:26.077Z,0.2
2018-11-23T01:06:38.280Z,0.2
2018-11-23T01:07:50.499Z,0.2
2018-11-23T01:09:02.722Z,0.2
2018-11-23T01:10:14.942Z,0.3
2018-11-23T01:11:27.240Z,0.3
2018-11-23T01:12:39.348Z,0.3
2018-11-23T01:13:51.567Z,0.4
2018-11-23T01:15:03.716Z,0.4
2018-11-23T01:16:16.002Z,0.4
2018-11-23T01:17:28.241Z,0.5
2018-11-23T01:18:40.477Z,0.5
2018-11-23T01:19:52.575Z,0.5
2018-11-23T01:21:04.798Z,0.6
2018-11-23T01:22:17.006Z,0.6
2018-11-23T01:23:29.217Z,0.6
2018-11-23T01:24:41.581Z,0.6
2018-11-23T01:25:53.726Z,0.6
2018-11-23T01:27:05.933Z,0.6
2018-11-23T01:28:18.151Z,0.6
2018-11-23T01:29:30.373Z,0.7
2018-11-23T01:30:42.611Z,0.7
2018-11-23T01:31:54.829Z,0.8
2018-11-23T01:33:07.046Z,0.8
2018-11-23T01:34:19.203Z,0.9
2018-11-23T01:35:31.433Z,0.9
2018-11-23T01:36:43.647Z,1
2018-11-23T01:37:55.945Z,1
2018-11-23T01:39:08.100Z,1
2018-11-23T01:40:20.318Z,1
2018-11-23T01:41:32.536Z,1.1
2018-11-23T01:42:44.840Z,1.1
2018-11-23T01:43:57.046Z,1.1
2018-11-23T01:45:09.300Z,1.1
2018-11-23T01:46:21.468Z,1.1
2018-11-23T01:47:33.708Z,1.1
2018-11-23T01:48:45.894Z,1.1
2018-11-23T01:49:58.920Z,1.1
2018-11-23T01:51:10.327Z,1.1
2018-11-23T01:52:22.542Z,1.1
2018-11-23T01:53:34.662Z,1.1
2018-11-23T01:54:46.956Z,1.1
2018-11-23T01:55:59.154Z,1.1
2018-11-23T01:57:11.290Z,1.1
2018-11-23T01:58:23.569Z,1.1
2018-11-23T01:59:35.765Z,1.1
2018-11-23T02:00:47.909Z,1.1
2018-11-23T02:02:00.372Z,1.1
2018-11-23T02:03:12.412Z,1.1
2018-11-23T02:04:24.628Z,1.1
2018-11-23T02:05:36.781Z,1.1
2018-11-23T02:06:48.986Z,1.1
2018-11-23T02:08:01.265Z,1.1
2018-11-23T02:09:13.415Z,1.1
2018-11-23T02:10:25.606Z,1.1
2018-11-23T02:11:37.894Z,1.1
2018-11-23T02:12:50.111Z,1
2018-11-23T02:14:02.298Z,1
2018-11-23T02:15:14.439Z,1
2018-11-23T02:16:26.711Z,1
2018-11-23T02:17:38.945Z,1
2018-11-23T02:18:51.104Z,0.9
2018-11-23T02:20:03.324Z,0.9
2018-11-23T02:21:15.514Z,0.9
2018-11-23T02:22:27.774Z,0.9
2018-11-23T02:23:39.923Z,0.9
2018-11-23T02:24:52.207Z,0.8
2018-11-23T02:26:04.425Z,0.8
2018-11-23T02:27:16.545Z,0.7
2018-11-23T02:28:28.737Z,0.7
2018-11-23T02:29:40.899Z,0.6
2018-11-23T02:30:53.111Z,0.5
2018-11-23T02:32:05.298Z,0.4
2018-11-23T02:33:17.578Z,0.5
2018-11-23T02:34:29.788Z,0.4
2018-11-23T02:35:42.018Z,0.4
2018-11-23T02:36:54.191Z,0.4
2018-11-23T02:38:06.402Z,0.4
2018-11-23T02:39:18.551Z,0.4
2018-11-23T02:40:30.790Z,0.3
2018-11-23T02:41:43.026Z,0.2
2018-11-23T02:42:55.216Z,0.2
2018-11-23T02:44:07.383Z,0.1
2018-11-23T02:45:19.632Z,0
2018-11-23T02:46:31.834Z,0
2018-11-23T02:47:44.041Z,0
2018-11-23T02:48:56.174Z,0.1
2018-11-23T02:50:08.447Z,0
2018-11-23T02:51:20.781Z,0
2018-11-23T02:52:32.871Z,-0.1
2018-11-23T02:53:45.113Z,-0.1
2018-11-23T02:54:57.328Z,-0.1
2018-11-23T02:56:09.491Z,-0.1
2018-11-23T02:57:21.605Z,0
2018-11-23T02:58:33.825Z,0
2018-11-23T02:59:46.145Z,0
2018-11-23T03:00:58.371Z,-0.1
2018-11-23T03:02:10.518Z,-0.1
2018-11-23T03:03:22.714Z,-0.2
2018-11-23T03:04:34.922Z,-0.2
2018-11-23T03:05:47.050Z,-0.3
2018-11-23T03:06:59.251Z,-0.4
2018-11-23T03:08:11.553Z,-0.4
2018-11-23T03:09:23.779Z,-0.4
2018-11-23T03:10:35.948Z,-0.4
2018-11-23T03:11:48.153Z,-0.5
2018-11-23T03:13:00.358Z,-0.5
2018-11-23T03:14:12.577Z,-0.5
2018-11-23T03:15:24.788Z,-0.4
2018-11-23T03:16:36.908Z,-0.4
2018-11-23T03:17:52.507Z,-0.4
2018-11-23T03:19:01.507Z,-0.4
2018-11-23T03:20:13.545Z,-0.4
2018-11-23T03:21:25.834Z,-0.5
2018-11-23T03:22:38.029Z,-0.5
2018-11-23T03:23:50.165Z,-0.5
2018-11-23T03:25:02.497Z,-0.5
2018-11-23T03:26:14.700Z,-0.5
2018-11-23T03:27:26.883Z,-0.5
2018-11-23T03:28:39.099Z,-0.5
2018-11-23T03:29:51.451Z,-0.5
2018-11-23T03:31:03.545Z,-0.5
2018-11-23T03:32:15.797Z,-0.6
2018-11-23T03:33:27.930Z,-0.6
2018-11-23T03:34:40.069Z,-0.6
2018-11-23T03:35:52.357Z,-0.6
2018-11-23T03:37:04.658Z,-0.5
2018-11-23T03:38:16.774Z,-0.5
2018-11-23T03:39:28.899Z,-0.6
2018-11-23T03:40:41.200Z,-0.5
2018-11-23T03:41:53.359Z,-0.5
2018-11-23T03:43:06.267Z,-0.5
2018-11-23T03:44:17.773Z,-0.6
2018-11-23T03:45:29.953Z,-0.6
2018-11-23T03:46:42.260Z,-0.6
2018-11-23T03:47:54.457Z,-0.6
2018-11-23T03:49:06.666Z,-0.6
2018-11-23T03:50:18.805Z,-0.6
2018-11-23T03:51:31.049Z,-0.6
2018-11-23T03:52:43.174Z,-0.5
2018-11-23T03:53:55.370Z,-0.5
2018-11-23T03:55:07.650Z,-0.6
2018-11-23T03:56:19.895Z,-0.7
2018-11-23T03:57:31.992Z,-0.7
2018-11-23T03:58:44.299Z,-0.6
2018-11-23T03:59:56.398Z,-0.6
2018-11-23T04:01:08.666Z,-0.7
2018-11-23T04:02:20.790Z,-0.7
2018-11-23T04:03:33.017Z,-0.6
2018-11-23T04:04:45.193Z,-0.7
2018-11-23T04:05:57.493Z,-0.6
2018-11-23T04:07:09.691Z,-0.7
2018-11-23T04:08:21.976Z,-0.6
2018-11-23T04:09:34.129Z,-0.7
2018-11-23T04:10:46.274Z,-0.7
2018-11-23T04:11:58.567Z,-0.7
2018-11-23T04:13:10.762Z,-0.7
2018-11-23T04:14:22.987Z,-0.7
2018-11-23T04:15:35.200Z,-0.7
2018-11-23T04:16:47.381Z,-0.7
2018-11-23T04:17:59.590Z,-0.7
2018-11-23T04:19:11.812Z,-0.7
2018-11-23T04:20:23.950Z,-0.8
2018-11-23T04:21:36.241Z,-0.8
2018-11-23T04:22:48.422Z,-0.8
2018-11-23T04:24:00.618Z,-0.8
2018-11-23T04:25:12.820Z,-0.8
2018-11-23T04:26:24.939Z,-0.8
2018-11-23T04:27:37.230Z,-0.8
2018-11-23T04:28:49.588Z,-0.8
2018-11-23T04:30:01.642Z,-0.9
2018-11-23T04:31:13.871Z,-0.9
2018-11-23T04:32:26.055Z,-0.9
2018-11-23T04:33:38.257Z,-0.9
2018-11-23T04:34:50.366Z,-0.9
2018-11-23T04:36:02.572Z,-1
2018-11-23T04:37:14.891Z,-1
2018-11-23T04:38:27.068Z,-1.1
2018-11-23T04:39:39.268Z,-1.1
2018-11-23T04:40:51.483Z,-1
2018-11-23T04:42:03.602Z,-1
2018-11-23T04:43:15.905Z,-1
2018-11-23T04:44:28.077Z,-1
2018-11-23T04:45:40.461Z,-1.1
2018-11-23T04:46:52.482Z,-1.1
2018-11-23T04:48:04.684Z,-1.1
2018-11-23T04:49:16.895Z,-1.3
2018-11-23T04:50:29.104Z,-1.4
2018-11-23T04:51:41.340Z,-1.4
2018-11-23T04:52:53.436Z,-1.3
2018-11-23T04:54:05.705Z,-1.3
2018-11-23T04:55:17.857Z,-1.3
2018-11-23T04:56:30.160Z,-1.3
2018-11-23T04:57:42.377Z,-1.3
2018-11-23T04:58:54.506Z,-1.2
2018-11-23T05:00:06.714Z,-1.2
2018-11-23T05:01:18.935Z,-1.2
2018-11-23T05:02:31.138Z,-1.2
2018-11-23T05:03:43.395Z,-1.2
2018-11-23T05:04:55.548Z,-1.3
2018-11-23T05:06:07.675Z,-1.3
2018-11-23T05:07:20.010Z,-1.3
2018-11-23T05:08:32.092Z,-1.3
2018-11-23T05:09:44.369Z,-1.3
2018-11-23T05:10:56.662Z,-1.2
2018-11-23T05:12:08.760Z,-1.2
2018-11-23T05:13:20.992Z,-1.1
2018-11-23T05:14:33.166Z,-1.2
2018-11-23T05:15:45.386Z,-1.1
2018-11-23T05:16:57.576Z,-1.2
2018-11-23T05:18:09.797Z,-1.1
2018-11-23T05:19:21.983Z,-1.1
2018-11-23T05:20:34.179Z,-1.1
2018-11-23T05:21:46.389Z,-1.1
2018-11-23T05:22:58.580Z,-1.1
2018-11-23T05:24:10.770Z,-1.1
2018-11-23T05:25:22.994Z,-1.2
2018-11-23T05:26:35.207Z,-1.2
2018-11-23T05:27:47.318Z,-1.2
2018-11-23T05:28:59.535Z,-1.1
2018-11-23T05:30:11.801Z,-1.1
2018-11-23T05:31:24.049Z,-1.2
2018-11-23T05:32:36.229Z,-1.3
2018-11-23T05:33:48.329Z,-1.3
2018-11-23T05:35:00.635Z,-1.3
2018-11-23T05:36:12.793Z,-1.3
2018-11-23T05:37:25.016Z,-1.3
2018-11-23T05:38:37.638Z,-1.3
2018-11-23T05:39:49.431Z,-1.2
2018-11-23T05:41:01.550Z,-1.2
2018-11-23T05:42:13.753Z,-1.2
2018-11-23T05:43:26.046Z,-1.2
2018-11-23T05:44:38.225Z,-1.2
2018-11-23T05:45:50.417Z,-1.1
2018-11-23T05:47:02.636Z,-1.1
2018-11-23T05:48:14.853Z,-1.2
2018-11-23T05:49:27.031Z,-1.3
2018-11-23T05:50:39.166Z,-1.3
2018-11-23T05:51:51.420Z,-1.3
2018-11-23T05:53:03.606Z,-1.3
2018-11-23T05:54:15.819Z,-1.3
2018-11-23T05:55:28.015Z,-1.2
2018-11-23T05:56:40.225Z,-1.2
2018-11-23T05:57:52.325Z,-1.1
2018-11-23T05:59:04.595Z,-1.2
2018-11-23T06:00:16.787Z,-1.1
2018-11-23T06:01:29.010Z,-1.1
2018-11-23T06:02:41.175Z,-1.1
2018-11-23T06:03:53.390Z,-1.1
2018-11-23T06:05:05.580Z,-1.1
2018-11-23T06:06:17.797Z,-1
2018-11-23T06:07:29.981Z,-1
2018-11-23T06:08:42.270Z,-1.1
2018-11-23T06:09:54.307Z,-1.1
2018-11-23T06:11:06.602Z,-1.1
2018-11-23T06:12:18.707Z,-1.1
2018-11-23T06:13:30.909Z,-1.1
2018-11-23T06:14:43.106Z,-1.1
2018-11-23T06:15:55.400Z,-1.2
2018-11-23T06:17:07.602Z,-1.2
2018-11-23T06:18:19.822Z,-1.3
2018-11-23T06:19:32.013Z,-1.4
2018-11-23T06:20:44.118Z,-1.5
2018-11-23T06:21:56.341Z,-1.4
2018-11-23T06:23:08.533Z,-1.4
2018-11-23T06:24:20.809Z,-1.4
2018-11-23T06:25:33.003Z,-1.4
2018-11-23T06:26:45.135Z,-1.4
2018-11-23T06:27:57.345Z,-1.3
2018-11-23T06:29:09.552Z,-1.3
2018-11-23T06:30:21.824Z,-1.3
2018-11-23T06:31:34.061Z,-1.3
2018-11-23T06:32:46.225Z,-1.3
2018-11-23T06:33:58.535Z,-1.4
2018-11-23T06:35:10.567Z,-1.4
2018-11-23T06:36:22.848Z,-1.4
2018-11-23T06:37:35.028Z,-1.4
2018-11-23T06:38:47.245Z,-1.3
2018-11-23T06:39:59.453Z,-1.2
2018-11-23T06:41:11.636Z,-1.1
2018-11-23T06:42:23.762Z,-1
2018-11-23T06:43:35.969Z,-0.9
2018-11-23T06:44:48.282Z,-0.9
2018-11-23T06:46:00.382Z,-1
2018-11-23T06:47:12.666Z,-1
2018-11-23T06:48:24.865Z,-1.1
2018-11-23T06:49:37.047Z,-1.1
2018-11-23T06:50:49.242Z,-1.1
2018-11-23T06:52:01.448Z,-1.1
2018-11-23T06:53:13.769Z,-1.1
2018-11-23T06:54:25.811Z,-1.1
2018-11-23T06:55:38.003Z,-1.2
2018-11-23T06:58:02.340Z,-1.1
2018-11-23T06:59:14.633Z,-1.2
2018-11-23T07:00:26.825Z,-1.2
2018-11-23T07:01:39.020Z,-1.1
2018-11-23T07:02:51.234Z,-1.1
2018-11-23T07:04:03.464Z,-1.1
2018-11-23T07:05:15.568Z,-1.1
2018-11-23T07:06:27.776Z,-1.1
2018-11-23T07:07:40.065Z,-1.1
2018-11-23T07:08:52.295Z,-1.1
2018-11-23T07:10:06.982Z,-1.1
2018-11-23T07:11:16.691Z,-1.1
2018-11-23T07:12:28.893Z,-1.1
2018-11-23T07:13:41.068Z,-1.2
2018-11-23T07:14:53.334Z,-1.2
2018-11-23T07:16:05.540Z,-1.2
2018-11-23T07:17:17.743Z,-1.1
2018-11-23T07:18:29.962Z,-1.1
2018-11-23T07:19:42.218Z,-1.2
2018-11-23T07:20:54.428Z,-1.2
2018-11-23T07:22:06.601Z,-1.1
2018-11-23T07:23:18.798Z,-1.1
2018-11-23T07:24:31.021Z,-1.1
2018-11-23T07:25:43.134Z,-1.1
2018-11-23T07:26:55.341Z,-1.1
2018-11-23T07:28:07.629Z,-1
2018-11-23T07:29:19.813Z,-0.9
2018-11-23T07:30:32.042Z,-0.9
2018-11-23T07:31:44.157Z,-0.9
2018-11-23T07:32:56.371Z,-0.9
2018-11-23T07:34:08.541Z,-0.9
2018-11-23T07:35:20.834Z,-0.9
2018-11-23T07:36:32.954Z,-0.9
2018-11-23T07:37:45.167Z,-0.9
2018-11-23T07:38:57.458Z,-0.8
2018-11-23T07:40:09.641Z,-0.8
2018-11-23T07:41:21.817Z,-0.8
2018-11-23T07:42:34.030Z,-0.8
2018-11-23T07:43:46.236Z,-0.8
2018-11-23T07:44:58.402Z,-0.7
2018-11-23T07:46:10.641Z,-0.6
2018-11-23T07:47:22.846Z,-0.7
2018-11-23T07:48:35.055Z,-0.6
2018-11-23T07:49:47.472Z,-0.6
2018-11-23T07:50:59.383Z,-0.6
2018-11-23T07:52:11.626Z,-0.6
2018-11-23T07:53:24.633Z,-0.6
2018-11-23T07:54:36.023Z,-0.6
2018-11-23T07:55:48.244Z,-0.6
2018-11-23T07:57:00.376Z,-0.5
2018-11-23T07:58:12.634Z,-0.5
2018-11-23T07:59:24.756Z,-0.5
2018-11-23T08:00:37.696Z,-0.4
2018-11-23T08:01:49.287Z,-0.4
2018-11-23T08:03:01.479Z,-0.4
2018-11-23T08:04:13.600Z,-0.4
2018-11-23T08:05:26.221Z,-0.4
2018-11-23T08:06:38.065Z,-0.4
2018-11-23T08:07:50.271Z,-0.3
2018-11-23T08:09:02.455Z,-0.2
2018-11-23T08:10:14.603Z,0
2018-11-23T08:11:26.861Z,0
2018-11-23T08:12:39.054Z,0
2018-11-23T08:13:51.271Z,0.1
2018-11-23T08:15:03.467Z,0.2
2018-11-23T08:16:15.675Z,0.3
2018-11-23T08:17:28.006Z,0.4
2018-11-23T08:18:40.101Z,0.5
2018-11-23T08:19:52.246Z,0.6
2018-11-23T08:21:04.503Z,0.7
2018-11-23T08:22:16.702Z,0.8
2018-11-23T08:23:28.911Z,0.8
2018-11-23T08:24:41.113Z,0.7
2018-11-23T08:25:53.322Z,0.7
2018-11-23T08:27:05.587Z,0.7
2018-11-23T08:28:17.659Z,0.7
2018-11-23T08:29:29.948Z,0.7
2018-11-23T08:30:42.206Z,0.8
2018-11-23T08:31:54.340Z,0.9
2018-11-23T08:33:06.543Z,1.1
2018-11-23T08:34:18.684Z,1.1
2018-11-23T08:35:30.959Z,0.9
2018-11-23T08:36:43.182Z,0.9
2018-11-23T08:37:55.475Z,0.9
2018-11-23T08:39:07.491Z,0.9
2018-11-23T08:40:19.821Z,0.9
2018-11-23T08:41:31.897Z,1
2018-11-23T08:42:44.132Z,1.2
2018-11-23T08:43:56.296Z,1.4
2018-11-23T08:45:08.511Z,1.6
2018-11-23T08:46:21.535Z,1.6
2018-11-23T08:47:32.915Z,1.6
2018-11-23T08:48:45.116Z,1.6
2018-11-23T08:49:57.337Z,1.9
2018-11-23T08:51:09.520Z,2.4
2018-11-23T08:52:21.835Z,2.7
2018-11-23T08:53:33.995Z,3
2018-11-23T08:54:46.125Z,3.1
2018-11-23T08:55:58.423Z,2.8
2018-11-23T08:57:10.527Z,2.8
2018-11-23T08:58:22.778Z,2.8
2018-11-23T08:59:35.007Z,2.9
2018-11-23T09:00:47.127Z,2.7
2018-11-23T09:01:59.401Z,2.4
2018-11-23T09:03:11.497Z,2.3
2018-11-23T09:04:23.717Z,2.3
2018-11-23T09:05:36.013Z,2.3
2018-11-23T09:06:48.097Z,2.3
2018-11-23T09:08:00.323Z,2.1
2018-11-23T09:09:12.499Z,2
2018-11-23T09:10:25.445Z,1.9
2018-11-23T09:11:37.040Z,1.8
2018-11-23T09:12:49.165Z,1.8
2018-11-23T09:14:01.370Z,1.8
2018-11-23T09:15:13.549Z,1.9
2018-11-23T09:16:25.759Z,1.9
2018-11-23T09:17:37.886Z,2
2018-11-23T09:18:50.168Z,2
2018-11-23T09:20:02.322Z,2.1
2018-11-23T09:21:14.597Z,2.1
2018-11-23T09:22:26.722Z,2.2
2018-11-23T09:23:39.006Z,2.4
2018-11-23T09:24:51.132Z,2.5
2018-11-23T09:26:03.380Z,2.6
2018-11-23T09:27:15.606Z,2.7
2018-11-23T09:28:27.803Z,2.6
2018-11-23T09:29:39.934Z,2.7
2018-11-23T09:30:52.282Z,2.7
2018-11-23T09:32:04.399Z,2.6
2018-11-23T09:33:16.527Z,2.6
2018-11-23T09:34:28.730Z,2.7
2018-11-23T09:35:41.013Z,2.8
2018-11-23T09:36:53.110Z,2.8
2018-11-23T09:38:05.399Z,2.9
2018-11-23T09:39:17.592Z,2.8
2018-11-23T09:40:29.896Z,2.8
2018-11-23T09:41:42.004Z,2.8
2018-11-23T09:42:54.214Z,2.7
2018-11-23T09:44:06.359Z,2.7
2018-11-23T09:45:18.602Z,2.7
2018-11-23T09:46:30.792Z,2.8
2018-11-23T09:47:44.708Z,3
2018-11-23T09:48:55.126Z,3.1
2018-11-23T09:50:07.438Z,3.2
2018-11-23T09:51:19.528Z,3.3
2018-11-23T09:52:31.829Z,3.3
2018-11-23T09:53:44.166Z,3.4
2018-11-23T09:54:56.242Z,3.5
2018-11-23T09:56:08.441Z,3.6
2018-11-23T09:57:20.589Z,3.6
2018-11-23T09:58:32.890Z,3.6
2018-11-23T09:59:45.103Z,3.8
2018-11-23T10:00:57.463Z,4.1
2018-11-23T10:02:09.533Z,4.2
2018-11-23T10:03:21.678Z,4.2
2018-11-23T10:04:37.180Z,4
2018-11-23T10:05:46.112Z,4
2018-11-23T10:06:58.328Z,4.1
2018-11-23T10:08:10.541Z,4.1
2018-11-23T10:09:22.820Z,4.3
2018-11-23T10:10:34.953Z,4.3
2018-11-23T10:11:47.242Z,4.4
2018-11-23T10:12:59.459Z,4.7
2018-11-23T10:14:11.663Z,5.1
2018-11-23T10:15:23.868Z,5.6
2018-11-23T10:16:36.106Z,6.1
2018-11-23T10:17:48.307Z,6.2
2018-11-23T10:19:00.456Z,6.2
2018-11-23T10:20:14.716Z,6
2018-11-23T10:21:24.950Z,6.2
2018-11-23T10:22:37.174Z,6.5
2018-11-23T10:23:49.374Z,7.2
2018-11-23T10:25:01.587Z,7.2
2018-11-23T10:26:13.783Z,7.2
2018-11-23T10:27:26.026Z,7.5
2018-11-23T10:28:38.216Z,8
2018-11-23T10:29:50.423Z,8.3
2018-11-23T10:31:02.622Z,8.3
2018-11-23T10:32:14.856Z,7.8
2018-11-23T10:33:27.034Z,7.7
2018-11-23T10:34:39.268Z,8
2018-11-23T10:35:51.389Z,8.3
2018-11-23T10:37:03.591Z,8.3
2018-11-23T10:38:15.885Z,8.6
2018-11-23T10:39:28.080Z,8.6
2018-11-23T10:40:40.301Z,9
2018-11-23T10:41:52.417Z,9.3
2018-11-23T10:43:04.658Z,9.2
2018-11-23T10:44:16.927Z,9.5
2018-11-23T10:45:29.046Z,9
2018-11-23T10:46:41.289Z,9
2018-11-23T10:47:53.556Z,9.2
2018-11-23T10:49:05.749Z,9.1
2018-11-23T10:50:17.866Z,9.4
2018-11-23T10:51:30.067Z,9.4
2018-11-23T10:52:42.431Z,9.2
2018-11-23T10:53:54.563Z,9.2
2018-11-23T10:55:06.693Z,9
2018-11-23T10:56:18.972Z,9.1
2018-11-23T10:57:31.196Z,8.9
2018-11-23T10:58:43.363Z,8.9
2018-11-23T10:59:55.620Z,8.6
2018-11-23T11:01:07.889Z,8.2
2018-11-23T11:02:20.031Z,8
2018-11-23T11:03:32.186Z,7.7
2018-11-23T11:04:44.510Z,6.8
2018-11-23T11:05:56.632Z,6.4
2018-11-23T11:07:08.942Z,6.3
2018-11-23T11:08:21.193Z,6.4
2018-11-23T11:09:33.317Z,6.3
2018-11-23T11:10:45.517Z,6.5
2018-11-23T11:11:57.733Z,6.8
2018-11-23T11:13:10.009Z,7
2018-11-23T11:14:22.231Z,6.8
2018-11-23T11:15:34.447Z,6.5
2018-11-23T11:16:46.694Z,6.4
2018-11-23T11:18:00.657Z,6.2
2018-11-23T11:19:11.040Z,6.2
2018-11-23T11:20:23.316Z,6.4
2018-11-23T11:21:36.099Z,6.3
2018-11-23T11:22:47.655Z,6.3
2018-11-23T11:23:59.944Z,6.2
2018-11-23T11:25:12.150Z,6
2018-11-23T11:26:24.353Z,5.9
2018-11-23T11:27:36.568Z,5.8
2018-11-23T11:28:48.764Z,5.8
2018-11-23T11:30:00.994Z,5.6
2018-11-23T11:31:13.186Z,5.8
2018-11-23T11:32:25.331Z,6
2018-11-23T11:33:37.540Z,5.9
2018-11-23T11:34:49.860Z,5.8
2018-11-23T11:36:01.948Z,5.6
2018-11-23T11:37:14.245Z,5.5
2018-11-23T11:38:26.479Z,5.5
2018-11-23T11:39:38.609Z,5.6
2018-11-23T11:40:50.862Z,5.7
2018-11-23T11:42:03.249Z,5.8
2018-11-23T11:43:15.311Z,5.8
2018-11-23T11:44:27.573Z,5.8
2018-11-23T11:45:39.754Z,5.7
2018-11-23T11:46:51.957Z,5.8
2018-11-23T11:48:04.170Z,5.8
2018-11-23T11:49:16.371Z,5.9
2018-11-23T11:50:28.499Z,5.8
2018-11-23T11:51:40.719Z,5.8
2018-11-23T11:52:52.992Z,5.9
2018-11-23T11:54:05.203Z,5.9
2018-11-23T11:55:17.327Z,6
2018-11-23T11:56:29.631Z,6.1
2018-11-23T11:57:41.826Z,6.2
2018-11-23T11:58:54.061Z,6.5
2018-11-23T12:00:06.177Z,6.9
2018-11-23T12:01:18.550Z,7.2
2018-11-23T12:02:30.708Z,7.3
2018-11-23T12:03:42.881Z,7.5
2018-11-23T12:04:55.011Z,7.6
2018-11-23T12:06:07.316Z,7.6
2018-11-23T12:07:19.532Z,7.4
2018-11-23T12:08:31.752Z,7.1
2018-11-23T12:09:43.961Z,6.9
2018-11-23T12:10:57.657Z,6.9
2018-11-23T12:12:08.335Z,7
2018-11-23T12:13:20.620Z,7
2018-11-23T12:14:32.845Z,7.2
2018-11-23T12:15:45.047Z,7.3
2018-11-23T12:16:57.269Z,7.3
2018-11-23T12:18:09.500Z,7.5
2018-11-23T12:19:21.694Z,7.5
2018-11-23T12:20:33.885Z,7.7
2018-11-23T12:21:46.106Z,7.7
2018-11-23T12:22:58.335Z,7.2
2018-11-23T12:24:10.454Z,6.8
2018-11-23T12:25:22.671Z,6.6
2018-11-23T12:26:34.902Z,6.4
2018-11-23T12:27:47.153Z,6.4
2018-11-23T12:28:59.395Z,6.3
2018-11-23T12:30:11.508Z,6.1
2018-11-23T12:31:23.801Z,6.2
2018-11-23T12:32:35.993Z,6.4
2018-11-23T12:33:51.136Z,6.5
2018-11-23T12:35:00.422Z,6.5
2018-11-23T12:36:12.562Z,6.4
2018-11-23T12:37:24.768Z,6.3
2018-11-23T12:38:36.972Z,6.3
2018-11-23T12:39:49.263Z,6.2
2018-11-23T12:41:01.481Z,6.2
2018-11-23T12:42:13.595Z,6.2
2018-11-23T12:43:25.886Z,6.2
2018-11-23T12:44:38.083Z,6.2
2018-11-23T12:45:50.287Z,6.2
2018-11-23T12:47:02.510Z,6.2
2018-11-23T12:48:14.707Z,6.2
2018-11-23T12:49:26.922Z,6.1
2018-11-23T12:50:39.046Z,6.1
2018-11-23T12:51:51.259Z,6
2018-11-23T12:53:03.459Z,6
2018-11-23T12:54:15.658Z,6
2018-11-23T12:55:27.942Z,6.1
2018-11-23T12:56:40.198Z,6.2
2018-11-23T12:57:52.302Z,6.2
2018-11-23T12:59:04.604Z,6.2
2018-11-23T13:00:16.812Z,6.2
2018-11-23T13:01:28.956Z,6.2
2018-11-23T13:02:41.161Z,6.2
2018-11-23T13:03:53.441Z,6.2
2018-11-23T13:05:05.647Z,6.2
2018-11-23T13:06:17.969Z,6.2
2018-11-23T13:07:30.072Z,6.3
2018-11-23T13:08:42.335Z,6.2
2018-11-23T13:09:54.504Z,6.2
2018-11-23T13:11:06.643Z,6.2
2018-11-23T13:12:18.955Z,6.2
2018-11-23T13:13:31.129Z,6.2
2018-11-23T13:14:43.374Z,6.2
2018-11-23T13:15:55.479Z,6.2
2018-11-23T13:17:07.756Z,6.2
2018-11-23T13:18:19.961Z,6.3
2018-11-23T13:19:32.151Z,6.3
2018-11-23T13:20:44.297Z,6.4
2018-11-23T13:21:56.517Z,6.4
2018-11-23T13:23:08.798Z,6.3
2018-11-23T13:24:20.936Z,6.3
2018-11-23T13:25:33.217Z,6.3
2018-11-23T13:26:45.364Z,6.3
2018-11-23T13:27:57.629Z,6.3
2018-11-23T13:29:09.847Z,6.3
2018-11-23T13:30:22.120Z,6.4
2018-11-23T13:31:34.195Z,6.3
2018-11-23T13:32:46.467Z,6.3
2018-11-23T13:33:58.716Z,6.3
2018-11-23T13:35:10.921Z,6.4
2018-11-23T13:36:23.077Z,6.4
2018-11-23T13:37:35.359Z,6.4
2018-11-23T13:38:47.459Z,6.4
2018-11-23T13:39:59.748Z,6.3
2018-11-23T13:41:11.987Z,6.3
2018-11-23T13:42:24.208Z,6.3
2018-11-23T13:43:36.441Z,6.3
2018-11-23T13:44:48.601Z,6.3
2018-11-23T13:46:00.831Z,6.3
2018-11-23T13:47:13.029Z,6.4
2018-11-23T13:48:25.171Z,6.4
2018-11-23T13:49:37.443Z,6.5
2018-11-23T13:50:49.584Z,6.4
2018-11-23T13:52:01.911Z,6.4
2018-11-23T13:53:14.003Z,6.3
2018-11-23T13:54:26.294Z,6.3
2018-11-23T13:55:38.411Z,6.2
2018-11-23T13:56:51.225Z,6.2
2018-11-23T13:58:02.915Z,6.3
2018-11-23T13:59:15.029Z,6.3
2018-11-23T14:00:30.145Z,6.3
2018-11-23T14:01:39.486Z,6.4
2018-11-23T14:02:51.620Z,6.4
2018-11-23T14:04:03.881Z,6.4
2018-11-23T14:05:16.006Z,6.5
2018-11-23T14:06:28.352Z,6.5
2018-11-23T14:07:40.428Z,6.4
2018-11-23T14:08:52.728Z,6.4
2018-11-23T14:10:04.964Z,6.4
2018-11-23T14:11:17.075Z,6.4
2018-11-23T14:12:29.353Z,6.3
2018-11-23T14:13:41.709Z,6.2
2018-11-23T14:14:53.695Z,6.2
2018-11-23T14:16:05.975Z,6.3
2018-11-23T14:17:18.196Z,6.3
2018-11-23T14:18:30.400Z,6.3
2018-11-23T14:19:42.603Z,6.4
2018-11-23T14:20:54.741Z,6.4
2018-11-23T14:22:07.022Z,6.4
2018-11-23T14:23:19.322Z,6.3
2018-11-23T14:24:31.432Z,6.3
2018-11-23T14:25:43.582Z,6.2
2018-11-23T14:26:55.838Z,6.2
2018-11-23T14:28:07.966Z,6.2
2018-11-23T14:29:20.277Z,6.1
2018-11-23T14:30:32.481Z,6.1
2018-11-23T14:31:44.638Z,6
2018-11-23T14:32:57.031Z,6
2018-11-23T14:34:09.040Z,6
2018-11-23T14:35:21.255Z,5.9
2018-11-23T14:36:33.464Z,5.9
2018-11-23T14:37:45.663Z,5.9
2018-11-23T14:38:57.861Z,6
2018-11-23T14:40:09.985Z,6.1
2018-11-23T14:41:22.210Z,6.1
2018-11-23T14:42:34.510Z,6.1
2018-11-23T14:43:46.733Z,6.2
2018-11-23T14:44:58.910Z,6.3
2018-11-23T14:46:11.091Z,6.3
2018-11-23T14:47:23.246Z,6.2
2018-11-23T14:48:35.419Z,6.2
2018-11-23T14:49:47.693Z,6.1
2018-11-23T14:50:59.894Z,6
2018-11-23T14:52:12.126Z,6
2018-11-23T14:53:24.238Z,5.9
2018-11-23T14:54:36.513Z,5.8
2018-11-23T14:55:48.736Z,5.8
2018-11-23T14:57:00.870Z,5.8
2018-11-23T14:58:13.046Z,5.7
2018-11-23T14:59:25.347Z,5.6
2018-11-23T15:00:37.450Z,5.5
2018-11-23T15:01:49.650Z,5.6
2018-11-23T15:03:01.938Z,5.6
2018-11-23T15:04:14.164Z,5.6
2018-11-23T15:05:26.333Z,5.7
2018-11-23T15:06:38.539Z,5.6
2018-11-23T15:07:50.750Z,5.7
2018-11-23T15:09:02.874Z,5.6
2018-11-23T15:10:15.159Z,5.6
2018-11-23T15:11:27.389Z,5.5
2018-11-23T15:12:39.471Z,5.4
2018-11-23T15:13:51.672Z,5.3
2018-11-23T15:15:03.933Z,5.3
2018-11-23T15:16:16.153Z,5.4
2018-11-23T15:17:28.299Z,5.4
2018-11-23T15:18:40.630Z,5.5
2018-11-23T15:19:52.714Z,5.4
2018-11-23T15:21:06.463Z,5.4
2018-11-23T15:22:17.276Z,5.3
2018-11-23T15:23:29.313Z,5.3
2018-11-23T15:24:41.597Z,5.2
2018-11-23T15:25:53.820Z,5.1
2018-11-23T15:27:06.015Z,5
2018-11-23T15:28:18.147Z,4.9
2018-11-23T15:29:30.591Z,4.8
2018-11-23T15:30:42.690Z,4.8
2018-11-23T15:31:54.802Z,4.7
2018-11-23T15:33:07.110Z,4.6
2018-11-23T15:34:19.288Z,4.5
2018-11-23T15:35:31.433Z,4.4
2018-11-23T15:36:43.723Z,4.3
2018-11-23T15:37:55.847Z,4.3
2018-11-23T15:39:08.137Z,4.2
2018-11-23T15:40:20.289Z,4.3
2018-11-23T15:41:32.586Z,4.4
2018-11-23T15:42:44.827Z,4.4
2018-11-23T15:43:56.979Z,4.4
2018-11-23T15:45:09.115Z,4.4
2018-11-23T15:46:21.362Z,4.5
2018-11-23T15:47:33.620Z,4.4
2018-11-23T15:48:45.733Z,4.3
2018-11-23T15:49:58.079Z,4.3
2018-11-23T15:51:10.148Z,4.3
2018-11-23T15:52:22.359Z,4.3
2018-11-23T15:53:34.549Z,4.3
2018-11-23T15:54:46.815Z,4.3
2018-11-23T15:55:59.047Z,4.2
2018-11-23T15:57:11.215Z,4.2
2018-11-23T15:58:23.354Z,4.1
2018-11-23T15:59:35.631Z,4.2
2018-11-23T16:00:47.829Z,4.1
2018-11-23T16:01:59.951Z,4.1
2018-11-23T16:03:12.661Z,4
2018-11-23T16:04:24.458Z,4.1
2018-11-23T16:05:36.641Z,4.1
2018-11-23T16:06:48.773Z,4.1
2018-11-23T16:08:01.098Z,4.1
2018-11-23T16:09:13.268Z,4
2018-11-23T16:10:25.473Z,4
2018-11-23T16:11:37.708Z,3.9
2018-11-23T16:12:49.805Z,3.9
2018-11-23T16:14:02.094Z,3.9
2018-11-23T16:15:14.328Z,3.8
2018-11-23T16:16:26.504Z,3.9
2018-11-23T16:17:38.719Z,3.9
2018-11-23T16:18:50.936Z,3.9
2018-11-23T16:20:03.055Z,3.9
2018-11-23T16:21:15.345Z,3.9
2018-11-23T16:22:27.542Z,3.9
2018-11-23T16:23:39.678Z,3.9
2018-11-23T16:24:51.892Z,3.9
2018-11-23T16:26:04.098Z,3.9
2018-11-23T16:27:19.814Z,3.9
2018-11-23T16:28:28.539Z,3.8
2018-11-23T16:29:40.782Z,3.8